Time;durP1;ratioP1;P1;durP2;ratioP2;P2;SDS_P1;SDS_P2;PMS_P1;PMS_P2;Temp;Humidity;BMP_temperature;BMP_pressure;BME280_temperature;BME280_humidity;BME280_pressure;Samples;Min_cycle;Max_cycle;Signal;HPM_P1;HPM_P2
2023/06/03 00:00:20;;;;;;;1.75;1.25;;;20.50;72.00;;;;;;5011644;28;20129;-33
2023/06/03 00:02:49;;;;;;;1.80;1.30;;;20.30;72.30;;;;;;5011590;28;20495;-33
2023/06/03 00:05:17;;;;;;;1.52;1.15;;;;;;;;;;5011389;28;20058;-32
2023/06/03 00:07:46;;;;;;;2.50;1.17;;;20.20;58.70;;;;;;5011832;28;20065;-33
2023/06/03 00:10:13;;;;;;;1.77;1.38;;;20.60;71.80;;;;;;5012033;28;20132;-33
2023/06/03 00:12:40;;;;;;;9.60;2.00;;;;;;;;;;5011333;28;20050;-33
2023/06/03 00:15:07;;;;;;;1.70;1.33;;;20.00;71.80;;;;;;5011940;28;20064;-33
2023/06/03 00:17:34;;;;;;;1.40;1.25;;;19.40;55.60;;;;;;5011619;28;20192;-33
2023/06/03 00:20:06;;;;;;;1.70;1.40;;;19.90;71.80;;;;;;5011535;28;20124;-33
2023/06/03 00:22:34;;;;;;;1.60;1.10;;;20.50;71.90;;;;;;5011562;28;20144;-33
2023/06/03 00:25:02;;;;;;;1.85;1.23;;;20.90;72.60;;;;;;5011845;28;20053;-33
2023/06/03 00:27:29;;;;;;;2.35;1.30;;;21.50;72.50;;;;;;5011544;28;20492;-33
2023/06/03 00:29:56;;;;;;;1.75;1.23;;;19.80;72.50;;;;;;5012028;28;20052;-33
2023/06/03 00:32:23;;;;;;;1.30;1.08;;;;;;;;;;5011235;28;20132;-32
2023/06/03 00:34:49;;;;;;;1.85;1.20;;;20.40;72.70;;;;;;5011502;28;20060;-30
2023/06/03 00:37:16;;;;;;;1.60;1.17;;;19.50;64.70;;;;;;5011110;28;20095;-31
2023/06/03 00:39:43;;;;;;;1.42;1.20;;;20.60;67.70;;;;;;5011472;28;20527;-31
2023/06/03 00:42:11;;;;;;;1.83;1.13;;;19.70;71.70;;;;;;5011631;28;20060;-30
2023/06/03 00:44:38;;;;;;;1.88;1.33;;;20.30;72.00;;;;;;5011557;28;20502;-30
2023/06/03 00:47:05;;;;;;;1.42;1.20;;;;;;;;;;5011250;28;20138;-32
2023/06/03 00:49:32;;;;;;;1.23;0.98;;;21.40;68.50;;;;;;5011525;28;20056;-30
2023/06/03 00:51:59;;;;;;;2.13;1.25;;;19.80;72.00;;;;;;5011550;28;20133;-30
2023/06/03 00:54:26;;;;;;;1.05;0.90;;;20.30;54.80;;;;;;5011156;28;20108;-31
2023/06/03 00:56:52;;;;;;;1.80;1.10;;;19.80;72.60;;;;;;5011452;28;20129;-30
2023/06/03 00:59:21;;;;;;;2.25;1.23;;;20.30;54.80;;;;;;5011366;28;20109;-31
2023/06/03 01:01:48;;;;;;;2.22;1.30;;;19.50;58.60;;;;;;5011128;28;20058;-30
2023/06/03 01:04:18;;;;;;;1.98;1.40;;;20.40;72.80;;;;;;5011397;28;20136;-31
2023/06/03 01:06:49;;;;;;;1.20;1.10;;;20.30;54.80;;;;;;5011298;28;20108;-30
2023/06/03 01:09:19;;;;;;;1.40;1.15;;;20.20;54.70;;;;;;5011392;28;20137;-32
2023/06/03 01:11:49;;;;;;;1.10;1.00;;;20.20;54.70;;;;;;5011213;28;20595;-32
2023/06/03 01:14:18;;;;;;;1.27;1.02;;;20.20;54.70;;;;;;5010834;28;20468;-32
2023/06/03 01:16:47;;;;;;;1.33;1.05;;;19.90;63.80;;;;;;5012585;28;20422;-31
2023/06/03 01:19:18;;;;;;;1.60;1.13;;;19.90;57.60;;;;;;5014859;28;20064;-30
2023/06/03 01:21:45;;;;;;;1.20;1.10;;;20.50;72.50;;;;;;5014729;28;20049;-30
2023/06/03 01:24:19;;;;;;;1.40;1.20;;;20.60;57.00;;;;;;5014176;28;20136;-30
2023/06/03 01:26:47;;;;;;;1.83;1.00;;;;;;;;;;5014853;28;20199;-31
2023/06/03 01:29:13;;;;;;;1.92;1.17;;;19.20;72.30;;;;;;5014542;28;20046;-30
2023/06/03 01:31:40;;;;;;;1.50;1.10;;;;;;;;;;5014727;28;20129;-32
2023/06/03 01:34:07;;;;;;;1.38;1.02;;;20.40;72.90;;;;;;5014210;28;20140;-30
2023/06/03 01:36:35;;;;;;;1.75;1.15;;;20.10;72.30;;;;;;5013965;28;20054;-30
2023/06/03 01:39:02;;;;;;;1.20;1.00;;;19.70;71.70;;;;;;5014628;28;20085;-30
2023/06/03 01:41:31;;;;;;;1.23;1.05;;;19.10;62.80;;;;;;5014353;28;20495;-30
2023/06/03 01:43:58;;;;;;;1.40;1.00;;;20.00;71.80;;;;;;5013980;28;20054;-30
2023/06/03 01:46:25;;;;;;;1.17;1.08;;;20.60;60.70;;;;;;5014123;28;20132;-31
2023/06/03 01:48:52;;;;;;;1.42;1.02;;;20.10;71.80;;;;;;5014298;28;20132;-31
2023/06/03 01:51:18;;;;;;;1.60;1.20;;;19.80;66.90;;;;;;5014343;28;20128;-30
2023/06/03 01:53:45;;;;;;;1.67;1.20;;;19.40;57.00;;;;;;5014143;28;20052;-31
2023/06/03 01:56:12;;;;;;;1.42;1.00;;;20.30;71.80;;;;;;5014086;28;20152;-31
2023/06/03 01:58:40;;;;;;;1.15;1.00;;;20.30;72.00;;;;;;5013232;28;20124;-30
2023/06/03 02:01:07;;;;;;;1.77;1.10;;;;;;;;;;5013752;28;20053;-30
2023/06/03 02:03:34;;;;;;;1.30;1.02;;;21.20;72.30;;;;;;5014035;28;20054;-30
2023/06/03 02:06:01;;;;;;;1.10;1.00;;;20.40;72.80;;;;;;5013960;28;20052;-30
2023/06/03 02:08:28;;;;;;;1.77;1.25;;;;;;;;;;5013989;28;20057;-31
2023/06/03 02:10:55;;;;;;;1.33;1.10;;;20.60;72.50;;;;;;5013626;28;20446;-31
2023/06/03 02:13:22;;;;;;;1.58;1.05;;;;;;;;;;5013362;28;20065;-31
2023/06/03 02:15:50;;;;;;;1.60;1.20;;;20.70;73.00;;;;;;5013676;28;20477;-31
2023/06/03 02:18:17;;;;;;;1.30;1.10;;;20.00;54.50;;;;;;5013621;28;20133;-30
2023/06/03 02:20:45;;;;;;;1.10;1.00;;;;;;;;;;5013738;28;20046;-32
2023/06/03 02:23:11;;;;;;;1.52;1.15;;;20.20;72.70;;;;;;5013252;28;20490;-30
2023/06/03 02:25:38;;;;;;;1.35;1.15;;;21.00;68.60;;;;;;5013626;28;20058;-30
2023/06/03 02:28:06;;;;;;;1.70;1.08;;;19.60;71.60;;;;;;5012167;28;20046;-30
2023/06/03 02:30:32;;;;;;;1.25;1.02;;;19.60;70.20;;;;;;5013326;28;20046;-31
2023/06/03 02:33:00;;;;;;;1.23;1.02;;;19.90;72.60;;;;;;5013432;28;20085;-31
2023/06/03 02:35:27;;;;;;;1.65;1.17;;;19.90;65.60;;;;;;5013583;28;20133;-30
2023/06/03 02:37:55;;;;;;;1.17;1.00;;;;;;;;;;5013158;28;20132;-30
2023/06/03 02:40:22;;;;;;;1.52;0.90;;;19.30;71.50;;;;;;5013373;28;20137;-30
2023/06/03 02:42:49;;;;;;;1.13;0.98;;;19.90;69.60;;;;;;5012610;28;20133;-31
2023/06/03 02:45:16;;;;;;;1.58;1.20;;;19.60;71.60;;;;;;5013387;28;20132;-30
2023/06/03 02:47:43;;;;;;;1.25;1.00;;;;;;;;;;5013355;28;20137;-32
2023/06/03 02:50:11;;;;;;;2.33;1.25;;;19.90;54.30;;;;;;5013226;28;20475;-30
2023/06/03 02:52:38;;;;;;;1.15;0.90;;;19.60;72.10;;;;;;5012949;28;20088;-30
2023/06/03 02:55:07;;;;;;;1.52;1.10;;;19.80;59.50;;;;;;4995807;28;20451;-31
2023/06/03 02:57:34;;;;;;;1.65;1.20;;;20.00;72.50;;;;;;5003539;28;20046;-30
2023/06/03 03:00:01;;;;;;;1.65;1.25;;;;;;;;;;4993422;28;20157;-32
2023/06/03 03:02:28;;;;;;;1.48;1.10;;;19.80;70.90;;;;;;4993196;28;20129;-31
2023/06/03 03:04:55;;;;;;;1.67;1.17;;;;;;;;;;4993185;28;20574;-33
2023/06/03 03:07:27;;;;;;;1.92;1.23;;;19.90;54.30;;;;;;5009122;28;20143;-31
2023/06/03 03:09:54;;;;;;;2.13;1.10;;;20.70;63.10;;;;;;5012396;28;20130;-30
2023/06/03 03:12:21;;;;;;;2.22;1.30;;;19.50;72.00;;;;;;5012675;28;20046;-30
2023/06/03 03:14:48;;;;;;;1.60;1.20;;;;;;;;;;5012791;28;20042;-31
2023/06/03 03:17:14;;;;;;;1.58;1.05;;;19.10;65.00;;;;;;5012725;28;20056;-30
2023/06/03 03:19:41;;;;;;;3.15;1.10;;;19.00;71.30;;;;;;5012531;28;20046;-30
2023/06/03 03:22:08;;;;;;;1.48;1.10;;;19.40;63.20;;;;;;5012122;28;20578;-31
2023/06/03 03:24:36;;;;;;;1.17;1.05;;;20.10;72.70;;;;;;5012127;28;20128;-30
2023/06/03 03:27:03;;;;;;;1.48;1.02;;;19.90;72.60;;;;;;5012623;28;20046;-31
2023/06/03 03:29:31;;;;;;;0.93;0.90;;;20.00;71.80;;;;;;5012506;28;20050;-30
2023/06/03 03:32:03;;;;;;;1.60;1.20;;;19.80;54.30;;;;;;5012538;28;20096;-31
2023/06/03 03:34:31;;;;;;;1.40;1.05;;;;;;;;;;5011963;28;20136;-32
2023/06/03 03:36:58;;;;;;;1.15;1.00;;;;;;;;;;5011829;28;20049;-30
2023/06/03 03:39:25;;;;;;;1.80;1.10;;;20.60;72.80;;;;;;5011777;28;20060;-31
2023/06/03 03:41:53;;;;;;;1.60;1.10;;;19.80;54.30;;;;;;5012356;28;20057;-32
2023/06/03 03:44:21;;;;;;;1.30;1.00;;;;;;;;;;5012001;28;20137;-32
2023/06/03 03:46:49;;;;;;;1.60;1.05;;;19.90;71.70;;;;;;5011978;28;20054;-31
2023/06/03 03:49:15;;;;;;;1.48;1.10;;;19.50;62.80;;;;;;5012236;28;20061;-31
2023/06/03 03:51:42;;;;;;;1.15;0.98;;;19.80;70.80;;;;;;5012065;28;20125;-31
2023/06/03 03:54:09;;;;;;;1.35;1.10;;;20.80;58.50;;;;;;5011822;28;20137;-31
2023/06/03 03:56:35;;;;;;;1.58;1.20;;;18.60;71.00;;;;;;5012120;28;20062;-31
2023/06/03 03:59:03;;;;;;;1.60;1.08;;;19.10;72.30;;;;;;5011934;28;20140;-30
2023/06/03 04:01:31;;;;;;;1.15;1.00;;;20.70;72.20;;;;;;5012276;28;20129;-30
2023/06/03 04:03:58;;;;;;;1.50;1.10;;;;;;;;;;5011592;28;20055;-30
2023/06/03 04:06:29;;;;;;;1.25;1.00;;;19.70;72.10;;;;;;5011864;28;20125;-30
2023/06/03 04:08:56;;;;;;;1.65;1.20;;;19.10;70.80;;;;;;5011733;28;20069;-31
2023/06/03 04:11:25;;;;;;;1.58;1.10;;;20.10;72.60;;;;;;5012024;28;20045;-30
2023/06/03 04:13:52;;;;;;;1.13;1.02;;;19.20;71.80;;;;;;5011822;28;20133;-30
2023/06/03 04:16:48;;;;;;;1.60;1.08;;;19.70;54.20;;;;;;5012012;28;20050;-32
2023/06/03 04:19:15;;;;;;;1.38;1.00;;;19.50;72.00;;;;;;5011600;28;20527;-30
2023/06/03 04:21:42;;;;;;;1.20;0.93;;;19.90;72.60;;;;;;5011917;28;20050;-30
2023/06/03 04:24:09;;;;;;;1.30;1.10;;;19.80;71.80;;;;;;5011372;28;20152;-30
2023/06/03 04:26:36;;;;;;;1.10;1.00;;;;;;;;;;5011791;28;20454;-31
2023/06/03 04:29:03;;;;;;;1.80;1.10;;;19.80;72.70;;;;;;5011598;28;20104;-30
2023/06/03 04:31:30;;;;;;;1.98;1.05;;;19.40;60.30;;;;;;5011954;28;20050;-31
2023/06/03 04:33:58;;;;;;;2.03;1.20;;;19.30;71.50;;;;;;5011635;28;20064;-31
2023/06/03 04:36:25;;;;;;;1.48;1.15;;;19.80;71.80;;;;;;5010908;28;20056;-30
2023/06/03 04:38:52;;;;;;;1.55;1.10;;;19.40;72.10;;;;;;5011394;28;20422;-30
2023/06/03 04:41:18;;;;;;;1.13;1.00;;;19.80;71.90;;;;;;5011469;28;20046;-31
2023/06/03 04:43:46;;;;;;;1.77;1.00;;;19.30;71.70;;;;;;5011441;28;20054;-30
2023/06/03 04:46:14;;;;;;;1.83;1.10;;;20.30;62.90;;;;;;5011473;28;20092;-30
2023/06/03 04:48:45;;;;;;;1.20;1.00;;;19.50;66.10;;;;;;5011774;28;20054;-30
2023/06/03 04:51:13;;;;;;;2.13;1.20;;;19.70;72.80;;;;;;5012355;28;20056;-30
2023/06/03 04:53:41;;;;;;;1.60;1.15;;;19.30;72.60;;;;;;5014755;28;20095;-30
2023/06/03 04:56:08;;;;;;;1.40;1.00;;;19.50;71.70;;;;;;5015137;28;20060;-30
2023/06/03 04:58:36;;;;;;;1.27;1.00;;;19.50;69.60;;;;;;5015381;28;20080;-30
2023/06/03 05:01:04;;;;;;;1.50;1.10;;;19.80;56.90;;;;;;5015129;28;20141;-31
2023/06/03 05:03:31;;;;;;;1.38;1.00;;;19.70;66.20;;;;;;5014753;28;20054;-31
2023/06/03 05:06:01;;;;;;;1.27;1.02;;;20.30;73.10;;;;;;5015189;28;20406;-30
2023/06/03 05:08:29;;;;;;;1.30;1.20;;;18.70;72.30;;;;;;5014749;28;20054;-31
2023/06/03 05:10:56;;;;;;;1.40;0.90;;;;;;;;;;5014922;28;20499;-30
2023/06/03 05:13:23;;;;;;;1.98;1.10;;;;;;;;;;5014820;28;20455;-32
2023/06/03 05:15:50;;;;;;;1.33;1.13;;;19.70;71.90;;;;;;5007588;28;20114;-30
2023/06/03 05:18:16;;;;;;;1.00;0.90;;;19.30;72.20;;;;;;5014067;28;20049;-30
2023/06/03 05:20:43;;;;;;;1.63;1.10;;;;;;;;;;5014830;28;20056;-31
2023/06/03 05:23:10;;;;;;;1.27;1.00;;;19.50;71.80;;;;;;5014102;28;20056;-30
2023/06/03 05:25:38;;;;;;;1.63;1.05;;;20.00;72.50;;;;;;5014838;28;20133;-30
2023/06/03 05:28:06;;;;;;;1.30;1.10;;;19.30;71.80;;;;;;5014775;28;20060;-30
2023/06/03 05:30:33;;;;;;;1.50;1.10;;;19.70;72.50;;;;;;5014914;28;20060;-30
2023/06/03 05:33:00;;;;;;;1.85;1.13;;;;;;;;;;5014587;28;20104;-32
2023/06/03 05:35:27;;;;;;;1.77;0.98;;;;;;;;;;5014756;28;20049;-30
2023/06/03 05:37:54;;;;;;;1.85;1.00;;;;;;;;;;5013694;28;20050;-32
2023/06/03 05:40:21;;;;;;;1.05;0.95;;;19.50;72.70;;;;;;5014624;28;20133;-30
2023/06/03 05:42:49;;;;;;;1.65;1.02;;;19.50;54.20;;;;;;5014260;28;20160;-30
2023/06/03 05:45:16;;;;;;;1.42;1.00;;;19.20;72.70;;;;;;5014533;28;20562;-30
2023/06/03 05:47:43;;;;;;;0.90;0.82;;;19.80;72.10;;;;;;5014483;28;20050;-30
2023/06/03 05:50:12;;;;;;;1.23;1.10;;;19.20;71.80;;;;;;5014200;28;20077;-31
2023/06/03 05:52:39;;;;;;;1.83;1.05;;;;;;;;;;5013997;28;20046;-31
2023/06/03 05:55:07;;;;;;;1.00;0.90;;;19.70;72.10;;;;;;5014250;28;20136;-30
2023/06/03 05:57:34;;;;;;;1.55;1.00;;;19.50;54.20;;;;;;5013358;28;20050;-32
2023/06/03 06:00:03;;;;;;;1.40;1.10;;;18.90;71.90;;;;;;5013305;28;20054;-31
2023/06/03 06:02:30;;;;;;;2.97;1.20;;;20.00;72.30;;;;;;5012854;28;20054;-30
2023/06/03 06:04:57;;;;;;;1.38;1.05;;;;;;;;;;5013448;28;20121;-32
2023/06/03 06:07:23;;;;;;;1.58;1.10;;;19.80;72.00;;;;;;5013403;28;20124;-30
2023/06/03 06:09:50;;;;;;;1.35;1.13;;;19.70;72.00;;;;;;5013378;28;20462;-30
2023/06/03 06:12:17;;;;;;;1.60;1.10;;;;;;;;;;5013381;28;20041;-31
2023/06/03 06:14:44;;;;;;;2.60;1.10;;;19.70;72.10;;;;;;5013270;28;20450;-31
2023/06/03 06:17:16;;;;;;;1.00;0.90;;;19.50;54.20;;;;;;5013619;28;20129;-32
2023/06/03 06:19:42;;;;;;;2.00;1.20;;;18.90;72.20;;;;;;5013760;28;20058;-30
2023/06/03 06:22:09;;;;;;;1.15;0.90;;;19.70;57.30;;;;;;5013464;28;20124;-32
2023/06/03 06:24:37;;;;;;;1.30;1.00;;;19.70;72.30;;;;;;5013977;28;20132;-34
2023/06/03 06:27:04;;;;;;;3.45;1.10;;;18.70;59.70;;;;;;5013177;28;20053;-33
2023/06/03 06:29:31;;;;;;;1.20;0.93;;;19.50;72.30;;;;;;5013761;28;20129;-33
2023/06/03 06:31:59;;;;;;;1.75;1.13;;;;;;;;;;5012646;28;20052;-32
2023/06/03 06:34:29;;;;;;;1.55;0.98;;;19.70;72.60;;;;;;5013003;28;20049;-33
2023/06/03 06:36:56;;;;;;;1.42;1.00;;;19.40;71.70;;;;;;5011965;28;20057;-33
2023/06/03 06:39:43;;;;;;;1.05;0.95;;;19.80;72.80;;;;;;5010330;28;20455;-33
2023/06/03 06:42:10;;;;;;;1.50;1.08;;;19.50;54.20;;;;;;5011238;28;20042;-33
2023/06/03 06:44:39;;;;;;;1.35;1.00;;;19.50;53.90;;;;;;5003125;28;20530;-33
2023/06/03 06:47:06;;;;;;;1.88;1.10;;;;;;;;;;5004309;28;20141;-31
2023/06/03 06:49:34;;;;;;;1.23;1.00;;;19.90;72.20;;;;;;4996314;28;20470;-33
2023/06/03 06:52:01;;;;;;;1.92;1.00;;;19.90;72.20;;;;;;5010677;28;20125;-33
2023/06/03 06:54:27;;;;;;;1.88;1.08;;;19.00;72.30;;;;;;5012750;28;20470;-33
2023/06/03 06:56:54;;;;;;;1.00;0.90;;;19.70;56.60;;;;;;5013030;28;20129;-33
2023/06/03 06:59:21;;;;;;;1.27;1.00;;;;;;;;;;5012523;28;20125;-33
2023/06/03 07:01:48;;;;;;;1.67;1.00;;;20.30;72.50;;;;;;5001943;28;20149;-33
2023/06/03 07:04:15;;;;;;;1.08;0.93;;;19.10;66.10;;;;;;5001597;28;20133;-33
2023/06/03 07:06:43;;;;;;;2.33;1.08;;;20.40;72.60;;;;;;5007912;28;20132;-33
2023/06/03 07:09:09;;;;;;;1.33;0.98;;;19.80;72.70;;;;;;5010203;28;20050;-30
2023/06/03 07:11:37;;;;;;;2.30;1.00;;;19.40;72.50;;;;;;5004386;28;20116;-30
2023/06/03 07:14:04;;;;;;;1.63;0.98;;;19.00;71.40;;;;;;5000965;28;20046;-31
2023/06/03 07:16:31;;;;;;;1.60;1.10;;;;;;;;;;4999838;28;20089;-31
2023/06/03 07:18:58;;;;;;;1.00;0.90;;;18.40;71.50;;;;;;5002212;28;20124;-30
2023/06/03 07:21:25;;;;;;;1.52;1.08;;;19.50;71.70;;;;;;5012271;28;20129;-30
2023/06/03 07:23:53;;;;;;;1.38;1.10;;;19.80;65.80;;;;;;5012129;28;20104;-31
2023/06/03 07:26:20;;;;;;;2.15;0.93;;;20.10;72.30;;;;;;5012525;28;20133;-30
2023/06/03 07:28:47;;;;;;;1.05;0.95;;;18.50;71.10;;;;;;5012670;28;20056;-30
2023/06/03 07:31:14;;;;;;;1.70;1.10;;;19.90;71.30;;;;;;5012133;28;20048;-31
2023/06/03 07:33:45;;;;;;;1.65;1.30;;;19.90;72.20;;;;;;5009238;28;20038;-30
2023/06/03 07:36:12;;;;;;;1.33;1.00;;;20.40;57.80;;;;;;5003432;28;20054;-31
2023/06/03 07:39:00;;;;;;;1.10;1.00;;;19.90;71.70;;;;;;5005289;28;20049;-31
2023/06/03 07:41:50;;;;;;;1.35;0.90;;;19.60;53.80;;;;;;5012498;28;20050;-32
2023/06/03 07:44:19;;;;;;;1.10;1.00;;;20.00;71.90;;;;;;5006740;28;20585;-30
2023/06/03 07:46:47;;;;;;;1.15;0.90;;;19.80;70.00;;;;;;5012268;28;20058;-30
2023/06/03 07:49:15;;;;;;;1.23;1.10;;;20.10;67.00;;;;;;5012544;28;20057;-31
2023/06/03 07:51:44;;;;;;;0.85;0.82;;;19.20;53.60;;;;;;5012083;28;20042;-31
2023/06/03 07:54:12;;;;;;;1.75;0.95;;;20.10;72.10;;;;;;5011788;28;20077;-30
2023/06/03 07:56:39;;;;;;;1.23;0.98;;;19.40;71.70;;;;;;5012128;28;20562;-31
2023/06/03 07:59:07;;;;;;;1.25;0.90;;;;;;;;;;5012214;28;20129;-30
2023/06/03 08:01:35;;;;;;;1.77;1.10;;;19.30;71.60;;;;;;5012050;28;20133;-30
2023/06/03 08:04:03;;;;;;;1.30;1.00;;;20.20;71.70;;;;;;5012163;28;20054;-30
2023/06/03 08:06:32;;;;;;;1.13;0.90;;;;;;;;;;5008503;28;20050;-32
2023/06/03 08:09:00;;;;;;;1.83;0.90;;;19.30;53.90;;;;;;5001776;28;20125;-30
2023/06/03 08:11:28;;;;;;;0.90;0.80;;;19.80;53.70;;;;;;5000955;28;20129;-31
2023/06/03 08:13:55;;;;;;;0.98;0.90;;;19.90;53.70;;;;;;5001528;28;20510;-32
2023/06/03 08:16:22;;;;;;;2.05;1.10;;;19.70;71.10;;;;;;4994872;28;20050;-30
2023/06/03 08:18:50;;;;;;;1.17;0.90;;;19.00;63.80;;;;;;4992731;28;20129;-31
2023/06/03 08:21:17;;;;;;;1.65;1.02;;;20.00;54.30;;;;;;4992392;28;20251;-31
2023/06/03 08:23:44;;;;;;;1.77;1.00;;;19.90;71.50;;;;;;5008726;28;20042;-30
2023/06/03 08:26:11;;;;;;;1.20;0.93;;;20.50;66.60;;;;;;5013977;28;20129;-31
2023/06/03 08:28:39;;;;;;;1.25;1.00;;;20.20;72.10;;;;;;5015484;28;20138;-30
2023/06/03 08:31:06;;;;;;;0.98;0.88;;;20.00;57.40;;;;;;5015951;28;20100;-31
2023/06/03 08:33:33;;;;;;;1.35;0.90;;;;;;;;;;5015585;28;20554;-32
2023/06/03 08:36:00;;;;;;;1.40;1.00;;;19.80;70.70;;;;;;5015273;28;20052;-30
2023/06/03 08:38:27;;;;;;;1.00;0.70;;;20.20;70.90;;;;;;5015600;28;20482;-30
2023/06/03 08:40:53;;;;;;;1.20;0.82;;;21.20;56.10;;;;;;5015637;28;20045;-31
2023/06/03 08:43:21;;;;;;;1.65;0.90;;;20.20;53.20;;;;;;5015244;28;20562;-30
2023/06/03 08:45:54;;;;;;;1.33;0.90;;;19.90;70.60;;;;;;5015641;28;20053;-30
2023/06/03 08:48:24;;;;;;;1.40;0.90;;;20.00;70.50;;;;;;5015687;28;20050;-30
2023/06/03 08:50:51;;;;;;;1.20;0.80;;;20.00;70.60;;;;;;5015253;28;20048;-30
2023/06/03 08:53:18;;;;;;;1.00;0.90;;;20.70;57.80;;;;;;5014560;28;20555;-31
2023/06/03 08:55:44;;;;;;;1.05;0.90;;;19.70;70.20;;;;;;5014220;28;20132;-30
2023/06/03 08:58:13;;;;;;;1.42;0.88;;;20.40;63.60;;;;;;5015590;28;20137;-30
2023/06/03 09:00:40;;;;;;;1.13;0.80;;;;;;;;;;5015394;28;20132;-31
2023/06/03 09:03:11;;;;;;;1.00;0.90;;;20.20;70.30;;;;;;5014997;28;20053;-30
2023/06/03 09:05:38;;;;;;;0.80;0.80;;;19.40;69.80;;;;;;5014982;28;20053;-30
2023/06/03 09:08:05;;;;;;;1.13;0.90;;;20.80;61.40;;;;;;5015251;28;20132;-30
2023/06/03 09:10:32;;;;;;;1.02;0.82;;;20.30;55.90;;;;;;5015326;28;20132;-30
2023/06/03 09:12:59;;;;;;;1.42;0.90;;;20.50;63.10;;;;;;5014888;28;20060;-30
2023/06/03 09:15:25;;;;;;;0.93;0.80;;;20.40;70.20;;;;;;5015142;28;20057;-30
2023/06/03 09:17:52;;;;;;;1.17;0.80;;;;;;;;;;5014841;28;20060;-30
2023/06/03 09:20:21;;;;;;;0.80;0.80;;;20.50;70.60;;;;;;5014723;28;20052;-30
2023/06/03 09:22:47;;;;;;;1.10;0.95;;;20.30;70.40;;;;;;5013893;28;20137;-30
2023/06/03 09:25:14;;;;;;;0.70;0.70;;;20.90;70.20;;;;;;5014477;28;20061;-29
2023/06/03 09:27:41;;;;;;;1.10;1.00;;;20.60;52.50;;;;;;5014445;28;20159;-30
2023/06/03 09:30:09;;;;;;;1.77;0.93;;;20.70;70.80;;;;;;5014576;28;20598;-29
2023/06/03 09:32:36;;;;;;;1.52;0.88;;;21.10;66.90;;;;;;5014074;28;20042;-30
2023/06/03 09:35:04;;;;;;;1.80;0.90;;;21.10;70.80;;;;;;5014685;28;20075;-30
2023/06/03 09:37:32;;;;;;;1.10;0.93;;;20.70;52.50;;;;;;5013297;28;20115;-31
2023/06/03 09:40:00;;;;;;;1.02;0.70;;;;;;;;;;5014749;28;20108;-30
2023/06/03 09:42:40;;;;;;;0.70;0.70;;;20.70;52.50;;;;;;5013986;28;20129;-30
2023/06/03 09:45:08;;;;;;;0.65;0.65;;;21.10;70.40;;;;;;5014541;28;20405;-30
2023/06/03 09:47:38;;;;;;;1.15;0.80;;;;;;;;;;5014367;28;20054;-30
2023/06/03 09:50:06;;;;;;;0.68;0.65;;;20.50;69.90;;;;;;5013928;28;20077;-30
2023/06/03 09:52:35;;;;;;;1.33;0.90;;;20.60;70.40;;;;;;5013853;28;20056;-30
2023/06/03 09:55:02;;;;;;;1.13;0.80;;;;;;;;;;5014147;28;20054;-30
2023/06/03 09:57:29;;;;;;;1.00;0.70;;;21.80;70.50;;;;;;5014206;28;20053;-30
2023/06/03 10:00:07;;;;;;;1.00;0.80;;;21.30;53.60;;;;;;5014076;28;20071;-31
2023/06/03 10:02:35;;;;;;;0.95;0.80;;;20.60;57.50;;;;;;5014157;28;20399;-30
2023/06/03 10:05:02;;;;;;;0.80;0.80;;;;;;;;;;5013824;28;20071;-30
2023/06/03 10:07:29;;;;;;;1.25;0.65;;;21.60;70.30;;;;;;5013973;28;20061;-30
2023/06/03 10:10:05;;;;;;;1.15;0.70;;;20.80;52.40;;;;;;5013821;28;20144;-31
2023/06/03 10:12:33;;;;;;;1.38;0.70;;;20.80;70.80;;;;;;5013940;28;20133;-30
2023/06/03 10:15:00;;;;;;;1.80;0.82;;;21.00;69.90;;;;;;5013683;28;20137;-30
2023/06/03 10:17:27;;;;;;;1.15;0.80;;;;;;;;;;5013765;28;20129;-31
2023/06/03 10:19:53;;;;;;;0.82;0.68;;;20.50;69.60;;;;;;5013985;28;20137;-30
2023/06/03 10:22:21;;;;;;;0.93;0.80;;;;;;;;;;5013216;28;20134;-30
2023/06/03 10:24:48;;;;;;;0.85;0.77;;;20.70;70.10;;;;;;5013513;28;20137;-30
2023/06/03 10:27:17;;;;;;;1.10;0.80;;;20.60;69.60;;;;;;5013481;28;20400;-30
2023/06/03 10:29:44;;;;;;;1.35;0.98;;;21.00;70.30;;;;;;5013780;28;20059;-30
2023/06/03 10:32:12;;;;;;;0.60;0.60;;;21.00;52.30;;;;;;5013490;28;20068;-31
2023/06/03 10:34:41;;;;;;;0.95;0.90;;;20.90;52.20;;;;;;5013443;28;20042;-31
2023/06/03 10:37:08;;;;;;;0.85;0.75;;;20.00;68.10;;;;;;5012922;28;20310;-30
2023/06/03 10:39:34;;;;;;;0.65;0.65;;;21.80;57.40;;;;;;5013516;28;20483;-30
2023/06/03 10:42:03;;;;;;;0.93;0.70;;;21.00;52.20;;;;;;5012950;28;20049;-32
2023/06/03 10:44:31;;;;;;;0.88;0.75;;;21.30;58.10;;;;;;5013090;28;20038;-30
2023/06/03 10:47:00;;;;;;;1.00;0.90;;;20.40;55.50;;;;;;5013250;28;20054;-30
2023/06/03 10:49:28;;;;;;;0.80;0.80;;;21.40;70.70;;;;;;5012041;28;20053;-30
2023/06/03 10:52:04;;;;;;;0.98;0.70;;;21.10;52.20;;;;;;5013247;28;20056;-31
2023/06/03 10:54:35;;;;;;;1.13;0.90;;;21.10;52.20;;;;;;5012968;28;20502;-31
2023/06/03 10:57:05;;;;;;;0.80;0.80;;;21.10;52.10;;;;;;5013190;28;20060;-31
2023/06/03 10:59:40;;;;;;;0.80;0.70;;;21.00;66.00;;;;;;5012597;28;20491;-30
2023/06/03 11:02:07;;;;;;;0.88;0.73;;;20.30;69.20;;;;;;5013028;28;20061;-30
2023/06/03 11:04:36;;;;;;;0.70;0.70;;;21.20;52.20;;;;;;5006607;28;20133;-30
2023/06/03 11:07:03;;;;;;;0.85;0.80;;;21.10;69.40;;;;;;5012754;28;20060;-30
2023/06/03 11:09:38;;;;;;;1.05;0.75;;;20.90;62.40;;;;;;5089391;27;20376;-33
2023/06/03 11:12:09;;;;;;;1.20;0.75;;;21.20;69.60;;;;;;5090410;28;20131;-32
2023/06/03 11:14:52;;;;;;;0.85;0.80;;;21.80;69.80;;;;;;5089343;28;20494;-33
2023/06/03 11:17:19;;;;;;;1.13;1.00;;;21.20;58.90;;;;;;5089117;28;20242;-33
2023/06/03 11:19:50;;;;;;;1.48;0.80;;;21.80;62.10;;;;;;5082190;28;20055;-33
2023/06/03 11:22:39;;;;;;;1.30;1.00;;;21.30;70.50;;;;;;5068771;28;20494;-33
2023/06/03 11:25:09;;;;;;;1.08;0.88;;;21.00;70.00;;;;;;5069020;28;20094;-34
2023/06/03 11:27:36;;;;;;;0.73;0.73;;;;;;;;;;5079263;28;20493;-33
2023/06/03 11:30:07;;;;;;;2.95;0.80;;;21.60;70.50;;;;;;5089052;28;20044;-33
2023/06/03 11:32:34;;;;;;;0.75;0.70;;;20.70;69.60;;;;;;5088792;28;20048;-34
2023/06/03 11:35:19;;;;;;;2.05;0.93;;;;;;;;;;5089231;28;20051;-36
2023/06/03 11:37:55;;;;;;;1.63;0.73;;;21.30;52.00;;;;;;5088513;28;20428;-34
2023/06/03 11:40:23;;;;;;;1.25;0.80;;;21.00;69.90;;;;;;5084199;28;20048;-33
2023/06/03 11:43:05;;;;;;;0.77;0.77;;;21.40;52.00;;;;;;5087512;28;20135;-32
2023/06/03 11:45:32;;;;;;;1.00;0.80;;;22.00;69.90;;;;;;5088198;28;20055;-32
2023/06/03 11:48:01;;;;;;;0.75;0.73;;;21.00;69.50;;;;;;5083332;28;20044;-32
2023/06/03 11:50:28;;;;;;;0.95;0.82;;;21.20;61.90;;;;;;5071099;28;20049;-34
2023/06/03 11:52:55;;;;;;;0.75;0.75;;;21.60;70.10;;;;;;5068025;28;20051;-32
2023/06/03 11:55:24;;;;;;;0.73;0.73;;;22.40;70.10;;;;;;5068602;28;20127;-33
2023/06/03 11:57:50;;;;;;;1.25;0.80;;;21.80;69.80;;;;;;5081638;28;20040;-32
2023/06/03 12:00:18;;;;;;;0.77;0.77;;;22.80;52.80;;;;;;5087934;28;20066;-35
2023/06/03 12:02:45;;;;;;;1.08;0.75;;;21.30;70.30;;;;;;5088356;28;20123;-33
2023/06/03 12:05:12;;;;;;;1.13;0.90;;;21.90;70.10;;;;;;5088298;28;20561;-33
2023/06/03 12:07:39;;;;;;;0.70;0.70;;;21.30;60.10;;;;;;5088200;28;20131;-32
2023/06/03 12:10:06;;;;;;;1.58;0.90;;;;;;;;;;5087957;28;20048;-35
2023/06/03 12:12:34;;;;;;;1.08;0.80;;;20.90;69.60;;;;;;5086207;28;20568;-33
2023/06/03 12:15:05;;;;;;;0.85;0.70;;;21.10;69.50;;;;;;5077245;28;20128;-32
2023/06/03 12:17:32;;;;;;;1.08;0.98;;;;;;;;;;5085262;28;20382;-36
2023/06/03 12:20:00;;;;;;;0.93;0.75;;;22.20;70.40;;;;;;5079723;28;20089;-31
2023/06/03 12:22:28;;;;;;;1.23;0.75;;;21.30;69.40;;;;;;5074530;28;20147;-33
2023/06/03 12:24:55;;;;;;;1.15;0.68;;;21.50;69.80;;;;;;5074187;28;20052;-32
2023/06/03 12:27:22;;;;;;;0.85;0.70;;;21.80;70.80;;;;;;5073476;28;20418;-33
2023/06/03 12:29:52;;;;;;;0.80;0.80;;;21.40;52.20;;;;;;5074358;28;20049;-33
2023/06/03 12:32:19;;;;;;;0.70;0.70;;;21.50;67.60;;;;;;5073783;28;20049;-32
2023/06/03 12:34:46;;;;;;;1.20;0.80;;;21.20;65.60;;;;;;5074506;28;20123;-31
2023/06/03 12:37:23;;;;;;;0.85;0.75;;;21.60;64.70;;;;;;5073729;28;20102;-34
2023/06/03 12:39:51;;;;;;;0.65;0.65;;;;;;;;;;5074161;28;20633;-34
2023/06/03 12:42:19;;;;;;;0.60;0.60;;;21.70;70.30;;;;;;5072960;28;20059;-31
2023/06/03 12:44:52;;;;;;;1.65;0.70;;;21.20;59.50;;;;;;5074154;28;20062;-33
2023/06/03 12:47:20;;;;;;;1.35;0.85;;;21.30;62.80;;;;;;5073551;28;20048;-32
2023/06/03 12:50:03;;;;;;;0.70;0.70;;;21.40;52.30;;;;;;5074139;28;20044;-35
2023/06/03 12:52:31;;;;;;;1.83;0.90;;;21.50;69.90;;;;;;5073902;28;20139;-31
2023/06/03 12:54:59;;;;;;;0.65;0.60;;;21.40;68.20;;;;;;5074070;28;20048;-33
2023/06/03 12:57:26;;;;;;;0.90;0.70;;;22.00;70.10;;;;;;5057924;28;20465;-32
2023/06/03 13:00:06;;;;;;;0.75;0.75;;;20.30;69.30;;;;;;5054135;28;20049;-32
2023/06/03 13:02:33;;;;;;;0.90;0.70;;;21.40;69.90;;;;;;5053905;28;20457;-32
2023/06/03 13:05:00;;;;;;;1.30;0.80;;;21.40;69.90;;;;;;5053696;28;20060;-33
2023/06/03 13:07:27;;;;;;;0.95;0.70;;;22.00;71.10;;;;;;5070640;28;20123;-32